Ottignies, Belgium
Current Conditions -  °F | °C
As of 7:25 PM on Thursday 30 Oct 2014 (Local Time) from EBBE Reporting Station
Overcast Overcast  
Wind Chill: 59°   Ceiling: 12000
Heat Index: 59°   Visibility: 6mi
Dew Point: 54°   Wind: 6mph
Humidity: 82%   Direction: 190°S
Pressure: 30.18"   Gusts: NA
Location:  50.67°N, 4.57°E
Report Text: EBBE 301825Z AUTO 19005KT 9999 OVC120/// 15/12 Q1022 BLU
Loading
Personal Weather Stations






























Interactive Weather Map
Tropical Storm Tracking
New forecast layout! Learn more

10-Day Weather Forecast

Advertisements
Track Severe Weather on mobile